Time;durP1;ratioP1;P1;durP2;ratioP2;P2;SDS_P1;SDS_P2;PMS_P1;PMS_P2;Temp;Humidity;BMP_temperature;BMP_pressure;BME280_temperature;BME280_humidity;BME280_pressure;Samples;Min_cycle;Max_cycle;Signal;HPM_P1;HPM_P2
2022/11/20 00:01:33;;;;;;;23.97;10.50;;;5.80;99.90;;;9.22;59.18;97085.53;5033294;28;20054;-52
2022/11/20 00:04:02;;;;;;;26.50;9.87;;;5.70;99.90;;;9.17;59.54;97082.56;5001723;28;20049;-53
2022/11/20 00:06:30;;;;;;;28.73;10.43;;;5.60;99.90;;;9.20;59.34;97086.69;5002989;28;20057;-52
2022/11/20 00:09:01;;;;;;;20.00;8.87;;;5.70;99.90;;;9.15;59.42;97083.69;5002136;28;20047;-53
2022/11/20 00:11:32;;;;;;;15.57;7.97;;;5.60;99.90;;;9.15;59.27;97081.91;5002161;28;20054;-51
2022/11/20 00:14:02;;;;;;;45.20;11.63;;;5.60;99.90;;;9.17;59.35;97079.91;5003516;28;20052;-51
2022/11/20 00:16:32;;;;;;;20.20;9.47;;;5.70;99.90;;;9.19;59.44;97082.38;5005995;28;20065;-53
2022/11/20 00:19:01;;;;;;;18.23;9.90;;;5.70;99.90;;;9.17;59.32;97079.91;5004848;28;20391;-50
2022/11/20 00:21:29;;;;;;;17.33;8.63;;;5.70;99.90;;;9.18;59.57;97076.22;5005961;28;20050;-53
2022/11/20 00:23:59;;;;;;;15.77;9.83;;;5.70;99.90;;;9.17;59.37;97087.03;5004220;28;20313;-52
2022/11/20 00:26:28;;;;;;;16.50;9.83;;;5.70;99.90;;;9.17;59.35;97087.88;5004637;28;20053;-51
2022/11/20 00:29:00;;;;;;;15.23;10.93;;;5.70;99.90;;;9.16;59.32;97091.50;5003913;28;20049;-54
2022/11/20 00:31:29;;;;;;;14.87;9.73;;;5.70;99.90;;;9.16;59.41;97082.72;5006225;28;20399;-52
2022/11/20 00:33:57;;;;;;;28.20;19.03;;;5.70;99.90;;;9.17;59.59;97084.38;5005048;28;20042;-52
2022/11/20 00:36:29;;;;;;;18.30;12.73;;;5.80;99.90;;;9.18;59.19;97083.38;5020958;28;20066;-50
2022/11/20 00:38:58;;;;;;;16.57;11.23;;;5.80;99.90;;;9.18;59.44;97080.72;5005551;28;20057;-52
2022/11/20 00:41:29;;;;;;;16.53;9.43;;;5.90;99.90;;;9.18;59.55;97075.41;5020956;28;20064;-52
2022/11/20 00:43:58;;;;;;;13.23;8.00;;;5.90;99.90;;;9.20;59.30;97084.03;5003451;28;20086;-50
2022/11/20 00:46:27;;;;;;;13.03;8.50;;;5.90;99.90;;;9.17;59.32;97081.72;5005864;28;20240;-51
2022/11/20 00:48:56;;;;;;;13.43;7.20;;;5.90;99.90;;;9.15;59.26;97081.91;5005682;28;20077;-51
2022/11/20 00:51:26;;;;;;;15.33;8.23;;;5.90;99.90;;;9.12;59.09;97084.88;5004868;28;20050;-52
2022/11/20 00:53:59;;;;;;;16.67;8.60;;;5.90;99.90;;;9.12;59.22;97086.72;5003750;28;20046;-54
2022/11/20 00:56:28;;;;;;;11.68;7.85;;;5.80;99.90;;;9.11;59.06;97082.38;5003869;28;20065;-50
2022/11/20 00:59:01;;;;;;;19.90;8.93;;;5.80;99.90;;;9.09;58.92;97089.69;5005194;28;20056;-53
2022/11/20 01:01:29;;;;;;;13.13;8.10;;;5.70;99.90;;;9.07;58.98;97088.03;5004053;28;20050;-55
2022/11/20 01:04:00;;;;;;;19.80;8.97;;;5.70;99.90;;;9.07;58.96;97087.19;5004739;28;20339;-51
2022/11/20 01:06:38;;;;;;;12.60;7.60;;;5.70;99.90;;;9.10;59.12;97100.16;5003807;28;20042;-55
2022/11/20 01:09:13;;;;;;;12.53;8.37;;;5.70;99.90;;;9.15;59.13;97091.66;5005793;28;20050;-53
2022/11/20 01:11:44;;;;;;;12.77;7.27;;;5.80;99.90;;;9.20;59.14;97094.66;5003753;28;20050;-55
2022/11/20 01:14:17;;;;;;;10.00;6.07;;;5.80;99.90;;;9.25;59.16;97097.66;5004551;28;20042;-54
2022/11/20 01:16:51;;;;;;;10.48;5.53;;;5.90;99.90;;;9.29;59.10;97095.50;5003755;28;20054;-53
2022/11/20 01:19:22;;;;;;;7.30;4.25;;;5.90;99.90;;;9.33;59.07;97094.19;5005475;28;20054;-54
2022/11/20 01:21:53;;;;;;;8.30;4.30;;;5.90;99.90;;;9.35;59.21;97100.97;5004765;28;20397;-55
2022/11/20 01:24:22;;;;;;;9.33;4.10;;;6.00;99.90;;;9.39;59.30;97098.81;5003385;28;20052;-51
2022/11/20 01:26:51;;;;;;;5.40;3.50;;;6.00;99.90;;;9.41;58.98;97097.66;5005611;28;20050;-54
2022/11/20 01:29:24;;;;;;;6.77;4.23;;;6.10;99.90;;;9.44;58.97;97092.00;5003139;28;20042;-53
2022/11/20 01:31:53;;;;;;;5.35;3.90;;;6.10;99.90;;;9.47;58.99;97093.50;5003344;28;20050;-55
2022/11/20 01:34:22;;;;;;;4.90;3.47;;;6.10;99.90;;;9.46;58.62;97095.31;5004253;28;20236;-54
2022/11/20 01:36:52;;;;;;;5.07;3.23;;;6.10;99.90;;;9.44;58.47;97093.81;5005062;28;20236;-55
2022/11/20 01:39:24;;;;;;;5.90;3.13;;;6.10;99.90;;;9.46;58.66;97092.66;5003409;28;20056;-55
2022/11/20 01:44:52;;;;;;;4.47;2.70;;;6.20;99.90;;;9.52;58.59;97099.16;5019256;28;20050;-53
2022/11/20 01:47:36;;;;;;;3.73;2.63;;;6.20;99.90;;;9.50;58.53;97093.16;5019384;28;20038;-52
2022/11/20 01:50:24;;;;;;;6.10;3.33;;;6.20;99.90;;;9.53;58.63;97095.47;5003373;28;20240;-55
2022/11/20 01:53:15;;;;;;;5.07;2.97;;;6.20;99.90;;;9.52;58.32;97099.16;5004091;28;20058;-54
2022/11/20 01:55:53;;;;;;;4.23;2.70;;;6.30;99.90;;;9.55;58.11;97092.66;5002548;28;20057;-52
2022/11/20 01:58:28;;;;;;;5.83;3.07;;;6.20;99.90;;;9.57;58.26;97099.44;5003128;28;20046;-54
2022/11/20 02:00:57;;;;;;;3.97;2.63;;;6.20;99.90;;;9.60;58.16;97098.31;5003744;28;20046;-55
2022/11/20 02:03:25;;;;;;;5.87;3.27;;;6.20;99.90;;;9.64;57.94;97086.34;5003838;28;20050;-60
2022/11/20 02:06:27;;;;;;;4.70;2.83;;;6.30;99.90;;;9.63;58.20;97089.97;5002351;28;20056;-55
2022/11/20 02:08:55;;;;;;;4.80;3.23;;;6.30;99.90;;;9.69;57.85;97091.13;5003430;28;20054;-51
2022/11/20 02:11:24;;;;;;;4.40;3.03;;;6.30;99.90;;;9.70;57.65;97087.50;5002361;28;20252;-53
2022/11/20 02:13:53;;;;;;;3.40;2.93;;;6.30;99.90;;;9.75;57.58;97090.44;4999994;28;20046;-55
2022/11/20 02:16:31;;;;;;;3.77;3.07;;;6.40;99.90;;;9.77;57.71;97086.66;5002573;28;20069;-51
2022/11/20 02:19:01;;;;;;;7.47;2.73;;;6.40;99.90;;;9.77;57.74;97086.66;5006092;28;20050;-51
2022/11/20 02:22:06;;;;;;;6.10;2.80;;;6.40;99.90;;;9.76;58.03;97092.13;5054101;28;20054;-53
2022/11/20 02:24:34;;;;;;;3.58;2.30;;;6.50;99.90;;;9.80;57.45;97086.28;5052579;28;20052;-53
2022/11/20 02:27:11;;;;;;;4.30;2.20;;;6.50;99.90;;;9.81;57.20;97087.13;5022852;28;20321;-51
2022/11/20 02:29:56;;;;;;;3.53;2.20;;;6.50;99.90;;;9.82;57.34;97086.13;5053108;28;20046;-52
2022/11/20 02:32:29;;;;;;;4.73;2.83;;;6.40;99.90;;;9.86;57.15;97085.59;5052833;28;20053;-52
2022/11/20 02:34:57;;;;;;;4.60;2.20;;;6.50;99.90;;;9.92;57.16;97093.91;5038349;28;20052;-55
2022/11/20 02:37:36;;;;;;;4.97;2.47;;;6.60;99.90;;;9.95;56.99;97094.41;5054206;28;20050;-55
2022/11/20 02:40:05;;;;;;;3.87;2.30;;;6.60;99.90;;;9.92;56.81;97093.91;5023102;28;20054;-53
2022/11/20 02:42:33;;;;;;;3.93;2.57;;;6.50;99.90;;;9.95;56.95;97093.56;5023057;28;20046;-52
2022/11/20 02:45:02;;;;;;;3.30;2.33;;;6.60;99.90;;;9.95;56.57;97094.41;5023045;28;20064;-51
2022/11/20 02:47:31;;;;;;;5.17;2.37;;;6.60;99.90;;;9.93;56.77;97098.25;5037801;28;20041;-51
2022/11/20 02:49:59;;;;;;;4.83;2.40;;;6.50;99.90;;;9.90;56.83;97086.09;5022663;28;20052;-54
2022/11/20 02:52:27;;;;;;;5.80;2.40;;;6.50;99.90;;;9.84;56.52;97086.78;5022107;28;20344;-54
2022/11/20 02:54:55;;;;;;;3.27;1.90;;;6.40;99.90;;;9.82;56.91;97089.59;5053933;28;20201;-52
2022/11/20 02:57:23;;;;;;;3.20;2.00;;;6.40;99.90;;;9.77;56.82;97086.66;5022683;28;20103;-54
2022/11/20 02:59:51;;;;;;;3.20;2.10;;;6.40;99.90;;;9.78;56.72;97082.16;5054035;28;20050;-53
2022/11/20 03:02:20;;;;;;;3.50;2.20;;;6.40;99.90;;;9.81;56.63;97095.94;5022687;28;20046;-55
2022/11/20 03:04:48;;;;;;;3.97;1.97;;;6.40;99.90;;;9.80;56.17;97090.78;5021807;28;20356;-51
2022/11/20 03:07:16;;;;;;;3.50;1.60;;;6.40;99.90;;;9.77;56.26;97089.31;5022355;28;20231;-55
2022/11/20 03:09:44;;;;;;;3.63;2.37;;;6.30;99.90;;;9.75;56.19;97083.34;5023035;28;20049;-56
2022/11/20 03:12:13;;;;;;;3.00;1.90;;;6.30;99.90;;;9.75;56.05;97091.31;5022567;28;20261;-55
2022/11/20 03:14:41;;;;;;;2.83;2.03;;;6.40;99.90;;;9.69;55.92;97083.97;5021832;28;20378;-56
2022/11/20 03:17:09;;;;;;;8.67;2.47;;;6.30;99.90;;;9.68;55.89;97078.84;5022450;28;20240;-54
2022/11/20 03:19:37;;;;;;;3.60;2.37;;;6.20;99.90;;;9.68;56.06;97074.38;5053606;28;20170;-55
2022/11/20 03:22:05;;;;;;;3.97;1.90;;;6.30;99.90;;;9.62;56.18;97067.91;5022839;28;20052;-54
2022/11/20 03:24:33;;;;;;;3.07;2.30;;;6.20;99.90;;;9.58;56.14;97069.22;5053433;28;20049;-55
2022/11/20 03:27:01;;;;;;;3.50;2.20;;;6.20;99.90;;;9.57;56.02;97072.06;5022117;28;20045;-51
2022/11/20 03:29:29;;;;;;;3.87;2.73;;;6.10;99.90;;;9.50;56.08;97068.41;5021048;28;20052;-54
2022/11/20 03:31:58;;;;;;;4.13;2.67;;;6.10;99.90;;;9.54;56.25;97069.72;5023038;28;20050;-55
2022/11/20 03:34:26;;;;;;;4.27;3.07;;;6.20;99.90;;;9.56;56.20;97073.06;5021624;28;20068;-53
2022/11/20 03:36:54;;;;;;;5.97;3.10;;;6.20;99.90;;;9.47;55.71;97072.22;5022850;28;20045;-53
2022/11/20 03:39:22;;;;;;;4.23;2.20;;;6.10;99.90;;;9.44;56.17;97069.91;5053966;28;20217;-53
2022/11/20 03:41:51;;;;;;;3.57;2.63;;;6.10;99.90;;;9.39;55.99;97067.75;5053549;28;20240;-54
2022/11/20 03:44:21;;;;;;;3.37;2.60;;;6.00;99.90;;;9.39;56.14;97072.25;5021678;28;20053;-53
2022/11/20 03:46:49;;;;;;;3.67;2.63;;;6.00;99.90;;;9.41;56.02;97070.25;5021992;28;20045;-54
2022/11/20 03:49:18;;;;;;;6.67;2.20;;;6.00;99.90;;;9.39;55.78;97065.09;5025769;28;20053;-53
2022/11/20 03:51:46;;;;;;;3.70;2.20;;;6.00;99.90;;;9.42;55.83;97075.41;5057285;28;20052;-55
2022/11/20 03:54:15;;;;;;;3.67;2.40;;;6.10;99.90;;;9.41;55.83;97067.59;5057030;28;20056;-55
2022/11/20 03:56:43;;;;;;;3.93;2.80;;;6.00;99.90;;;9.41;55.88;97064.94;5026100;28;20050;-54
2022/11/20 03:59:11;;;;;;;7.10;3.53;;;6.00;99.90;;;9.37;55.68;97060.97;5025743;28;20344;-54
2022/11/20 04:01:40;;;;;;;5.00;2.33;;;6.00;99.90;;;9.34;55.80;97067.41;5025963;28;20046;-53
2022/11/20 04:04:14;;;;;;;5.13;2.20;;;6.00;99.90;;;9.34;55.73;97064.75;5024405;28;20038;-53
2022/11/20 04:06:43;;;;;;;4.27;2.43;;;6.00;99.90;;;9.31;55.77;97058.97;5025416;28;20046;-53
2022/11/20 04:09:11;;;;;;;3.33;2.30;;;5.90;99.90;;;9.25;55.94;97061.31;5057258;28;20050;-53
2022/11/20 04:11:40;;;;;;;4.10;2.50;;;5.90;99.90;;;9.27;55.89;97071.78;5024572;28;20204;-56
2022/11/20 04:14:15;;;;;;;4.73;2.93;;;5.90;99.90;;;9.25;55.80;97068.44;5056855;28;20054;-55
2022/11/20 04:16:44;;;;;;;2.87;2.23;;;5.90;99.90;;;9.20;56.08;97063.63;5057045;28;20050;-55
2022/11/20 04:19:15;;;;;;;3.20;2.00;;;5.80;99.90;;;9.21;56.06;97061.81;5057337;28;20052;-54
2022/11/20 04:21:44;;;;;;;4.23;2.20;;;5.80;99.90;;;9.22;56.01;97060.81;5056721;28;20046;-54
2022/11/20 04:24:12;;;;;;;4.77;2.37;;;5.90;99.90;;;9.26;56.22;97059.47;5025075;28;20061;-55
2022/11/20 04:26:41;;;;;;;4.17;2.53;;;5.90;99.90;;;9.29;56.05;97063.63;5056854;28;20048;-55
2022/11/20 04:29:11;;;;;;;7.97;3.30;;;5.90;99.90;;;9.33;56.10;97064.97;5055955;28;20046;-54
2022/11/20 04:31:39;;;;;;;3.63;2.40;;;5.90;99.90;;;9.36;56.25;97057.47;5056656;28;20045;-54
2022/11/20 04:34:11;;;;;;;4.00;2.40;;;6.00;99.90;;;9.34;56.02;97062.09;5024913;28;20060;-52
2022/11/20 04:36:39;;;;;;;3.13;2.10;;;5.90;99.90;;;9.38;56.13;97051.97;5056088;28;20050;-55
2022/11/20 04:39:12;;;;;;;4.17;2.50;;;6.00;99.90;;;9.39;56.11;97053.66;5040538;28;20053;-55
2022/11/20 04:41:40;;;;;;;4.10;2.50;;;6.00;99.90;;;9.39;56.23;97053.66;5040428;28;20054;-55
2022/11/20 04:44:08;;;;;;;3.90;2.50;;;6.00;99.90;;;9.39;56.29;97051.81;5056345;28;20050;-54
2022/11/20 04:46:40;;;;;;;3.23;2.27;;;6.00;99.90;;;9.44;56.04;97054.81;5024855;28;20056;-53
2022/11/20 04:49:10;;;;;;;4.17;2.80;;;6.00;99.90;;;9.40;56.41;97061.47;5024929;28;20336;-53
2022/11/20 04:51:38;;;;;;;4.27;2.53;;;6.10;99.90;;;9.44;56.31;97052.16;5024849;28;20050;-53
2022/11/20 04:54:06;;;;;;;3.90;2.70;;;6.10;99.90;;;9.36;56.69;97062.78;5056317;28;20049;-54
2022/11/20 04:56:34;;;;;;;5.23;2.63;;;6.00;99.90;;;9.42;56.61;97051.50;5023637;28;20255;-56
2022/11/20 04:59:03;;;;;;;4.17;2.33;;;6.10;99.90;;;9.47;56.55;97050.97;5024812;28;20352;-55
2022/11/20 05:01:32;;;;;;;4.67;2.50;;;6.20;99.90;;;9.44;56.81;97059.28;5024457;28;20374;-54
2022/11/20 05:04:00;;;;;;;4.70;2.53;;;6.20;99.90;;;9.52;56.46;97048.66;5023439;28;20053;-52
2022/11/20 05:06:28;;;;;;;4.70;2.80;;;6.20;99.90;;;9.58;56.38;97044.50;5056198;28;20060;-54
2022/11/20 05:08:56;;;;;;;3.90;2.40;;;6.30;99.90;;;9.62;56.60;97048.47;5056432;28;20054;-55
2022/11/20 05:11:25;;;;;;;3.17;1.90;;;6.40;99.90;;;9.66;56.53;97042.63;5039708;28;20581;-54
2022/11/20 05:13:53;;;;;;;4.53;2.43;;;6.40;99.90;;;9.70;56.63;97039.66;5022814;28;20054;-53
2022/11/20 05:16:23;;;;;;;3.20;2.17;;;6.40;99.90;;;9.76;56.57;97046.94;5054983;28;20054;-53
2022/11/20 05:18:54;;;;;;;2.73;2.17;;;6.50;99.90;;;9.79;56.54;97050.09;5056105;28;20050;-56
2022/11/20 05:21:22;;;;;;;3.53;2.37;;;6.50;99.90;;;9.70;56.41;97045.78;5055958;28;20049;-51
2022/11/20 05:23:50;;;;;;;4.37;3.00;;;6.50;99.90;;;9.80;56.43;97051.72;5055849;28;20256;-52
2022/11/20 05:26:21;;;;;;;2.27;1.80;;;6.50;99.90;;;9.85;56.22;97048.56;5024327;28;20045;-54
2022/11/20 05:28:51;;;;;;;4.30;2.03;;;6.60;99.90;;;9.89;56.27;97051.69;5023541;28;20046;-54
2022/11/20 05:31:24;;;;;;;3.00;1.80;;;6.60;99.90;;;9.94;55.60;97055.50;5024295;28;20056;-56
2022/11/20 05:33:56;;;;;;;2.77;2.07;;;6.70;99.90;;;9.95;55.90;97051.84;5054757;28;20251;-52
2022/11/20 05:36:25;;;;;;;3.37;2.30;;;6.70;99.90;;;9.93;55.83;97050.38;5055546;28;20072;-56
2022/11/20 05:38:53;;;;;;;3.47;2.07;;;6.70;99.90;;;10.01;55.66;97058.31;5024214;28;20050;-51
2022/11/20 05:41:28;;;;;;;3.40;2.13;;;6.80;99.90;;;10.05;55.95;97054.31;5024283;28;20336;-54
2022/11/20 05:43:58;;;;;;;4.53;1.93;;;6.80;99.90;;;10.09;55.70;97047.66;5023635;28;20052;-54
2022/11/20 05:46:26;;;;;;;2.97;1.70;;;6.90;99.90;;;10.10;55.85;97049.31;5024461;28;20054;-55
2022/11/20 05:48:57;;;;;;;2.67;1.70;;;6.90;99.90;;;10.13;55.66;97048.94;5054937;28;20056;-55
2022/11/20 05:51:26;;;;;;;2.90;1.60;;;6.90;99.90;;;10.15;55.70;97046.13;5055400;28;20045;-55
2022/11/20 05:53:57;;;;;;;4.53;1.83;;;6.90;99.90;;;10.14;55.38;97047.13;5023376;28;20056;-52
2022/11/20 05:56:26;;;;;;;4.40;1.60;;;6.90;99.90;;;10.10;55.63;97044.00;5038935;28;20374;-54
2022/11/20 05:58:54;;;;;;;2.70;2.00;;;6.80;99.90;;;10.15;55.41;97040.81;5023892;28;20064;-51
2022/11/20 06:01:25;;;;;;;2.47;1.50;;;6.90;99.90;;;10.17;55.85;97046.78;5023813;28;20037;-55
2022/11/20 06:03:54;;;;;;;2.27;1.60;;;6.90;99.90;;;10.16;55.30;97039.81;5054144;28;20332;-53
2022/11/20 06:06:23;;;;;;;6.00;2.97;;;6.90;99.90;;;10.15;55.25;97043.47;5055262;28;20251;-50
2022/11/20 06:08:51;;;;;;;4.50;2.20;;;6.80;99.90;;;10.19;55.35;97042.13;5023476;28;20333;-54
2022/11/20 06:11:19;;;;;;;2.40;1.37;;;6.90;99.90;;;10.21;55.26;97048.09;5054594;28;20060;-54
2022/11/20 06:13:48;;;;;;;1.70;1.50;;;7.00;99.90;;;10.16;55.28;97045.13;5054640;28;20053;-54
2022/11/20 06:16:18;;;;;;;1.87;1.43;;;6.90;99.90;;;10.17;55.21;97044.13;5055088;28;20045;-51
2022/11/20 06:18:47;;;;;;;2.83;1.70;;;6.90;99.90;;;10.18;55.50;97038.63;5023696;28;20065;-55
2022/11/20 06:21:19;;;;;;;2.00;1.40;;;6.90;99.90;;;10.22;55.15;97044.44;5039280;28;20058;-56
2022/11/20 06:23:49;;;;;;;3.43;1.80;;;7.00;99.90;;;10.22;55.01;97037.28;5023024;28;20061;-53
2022/11/20 06:26:23;;;;;;;3.47;1.87;;;7.00;99.90;;;10.21;55.33;97040.09;5054804;28;20060;-56
2022/11/20 06:28:53;;;;;;;2.20;1.47;;;7.00;99.90;;;10.15;54.90;97043.47;5053490;28;20053;-54
2022/11/20 06:31:25;;;;;;;2.00;1.30;;;6.90;99.90;;;10.17;54.93;97044.13;5054727;28;20045;-56
2022/11/20 06:33:54;;;;;;;2.20;1.60;;;6.90;99.90;;;10.19;54.82;97034.13;5037975;28;20057;-54
2022/11/20 06:36:23;;;;;;;4.10;2.40;;;6.90;99.90;;;10.20;55.07;97033.16;5054596;28;20198;-51
2022/11/20 06:38:51;;;;;;;7.60;4.50;;;6.90;99.90;;;10.22;54.97;97042.59;5038276;28;20053;-54
2022/11/20 06:41:22;;;;;;;3.20;1.93;;;6.90;99.90;;;10.19;55.11;97032.28;5023564;28;20372;-56
2022/11/20 06:43:51;;;;;;;3.03;2.30;;;6.90;99.90;;;10.21;54.99;97035.59;5054002;28;20045;-54
2022/11/20 06:46:20;;;;;;;2.67;1.73;;;6.90;99.90;;;10.23;54.89;97041.59;5054344;28;20045;-55
2022/11/20 06:48:50;;;;;;;2.43;1.73;;;7.00;99.90;;;10.24;55.21;97045.09;5054351;28;20348;-56
2022/11/20 06:51:18;;;;;;;2.43;1.20;;;7.00;99.90;;;10.18;55.02;97045.78;5054232;28;20046;-55
2022/11/20 06:53:46;;;;;;;2.07;1.43;;;6.90;99.90;;;10.12;55.05;97051.78;5053987;28;20060;-52
2022/11/20 06:56:14;;;;;;;2.87;1.40;;;6.80;99.90;;;10.13;55.16;97048.13;5023028;28;20050;-55
2022/11/20 06:58:42;;;;;;;2.13;1.57;;;6.80;99.90;;;10.14;54.88;97044.44;5054030;28;20245;-54
2022/11/20 07:01:13;;;;;;;1.97;1.27;;;6.80;99.90;;;10.21;54.70;97054.22;5054222;28;20243;-55
2022/11/20 07:03:42;;;;;;;2.00;1.20;;;6.90;99.90;;;10.19;55.33;97045.59;5053365;28;20071;-52
2022/11/20 07:06:10;;;;;;;1.20;1.00;;;6.90;99.90;;;10.22;55.05;97052.41;5022514;28;20053;-55
2022/11/20 07:08:39;;;;;;;2.10;1.23;;;6.90;99.90;;;10.17;55.17;97054.75;5022401;28;20154;-55
2022/11/20 07:11:07;;;;;;;4.30;0.93;;;6.90;99.90;;;10.20;55.25;97049.09;5022557;28;20052;-53
2022/11/20 07:13:36;;;;;;;1.73;1.40;;;6.90;99.90;;;10.20;55.36;97054.44;5053680;28;20049;-55
2022/11/20 07:16:07;;;;;;;2.20;1.40;;;6.90;99.90;;;10.17;55.27;97052.91;5037642;28;20339;-52
2022/11/20 07:18:36;;;;;;;1.67;1.07;;;6.90;99.90;;;10.23;55.10;97062.88;5053854;28;20260;-52
2022/11/20 07:21:09;;;;;;;2.03;1.30;;;7.00;99.90;;;10.20;55.09;97071.22;5023099;28;20376;-54
2022/11/20 07:23:37;;;;;;;2.00;1.23;;;7.00;99.90;;;10.29;55.11;97066.66;5021588;28;20251;-53
2022/11/20 07:26:08;;;;;;;1.40;1.10;;;7.00;99.90;;;10.29;55.17;97071.16;5022070;28;20056;-53
2022/11/20 07:28:37;;;;;;;2.00;1.30;;;7.00;99.90;;;10.34;55.60;97067.03;5022082;28;20080;-52
2022/11/20 07:31:06;;;;;;;2.63;1.13;;;7.10;99.90;;;10.30;55.24;97071.03;5053159;28;20050;-56
2022/11/20 07:33:34;;;;;;;1.53;1.20;;;7.00;99.90;;;10.30;55.59;97075.50;5022166;28;20243;-52
2022/11/20 07:36:03;;;;;;;1.73;1.13;;;7.00;99.90;;;10.25;55.35;97071.53;5020830;28;20063;-52
2022/11/20 07:38:31;;;;;;;2.03;1.10;;;7.10;99.90;;;10.33;55.64;97067.19;5018723;28;20312;-55
2022/11/20 07:41:01;;;;;;;1.60;1.10;;;7.10;99.90;;;10.34;55.28;97076.84;5020269;28;20060;-52
2022/11/20 07:43:30;;;;;;;1.63;1.17;;;7.10;99.90;;;10.35;55.51;97081.13;5021342;28;20056;-54
2022/11/20 07:46:03;;;;;;;3.97;1.30;;;7.10;99.90;;;10.37;55.17;97076.47;5036172;28;20364;-53
2022/11/20 07:48:32;;;;;;;1.53;1.23;;;7.10;99.90;;;10.34;55.28;97076.84;5020156;28;20053;-53
2022/11/20 07:51:00;;;;;;;1.27;1.10;;;7.10;99.90;;;10.31;55.61;97074.50;5019785;28;20045;-54
2022/11/20 07:53:29;;;;;;;1.63;1.33;;;7.10;99.90;;;10.28;55.39;97075.66;5022629;28;20353;-54
2022/11/20 07:56:02;;;;;;;1.97;1.43;;;7.10;99.90;;;10.35;55.25;97071.34;5019776;28;20381;-54
2022/11/20 07:58:32;;;;;;;1.63;1.23;;;7.10;99.90;;;10.42;55.15;97080.28;5020341;28;20054;-52
2022/11/20 08:01:06;;;;;;;1.97;1.27;;;7.20;99.90;;;10.45;55.38;97079.13;5019812;28;20054;-55
2022/11/20 08:03:37;;;;;;;3.63;2.72;;;7.20;99.90;;;10.44;55.26;97080.09;5019804;28;20344;-52
2022/11/20 08:06:06;;;;;;;1.63;1.00;;;7.30;99.90;;;10.43;55.57;97079.28;5020312;28;20034;-55
2022/11/20 08:08:34;;;;;;;2.70;1.10;;;7.30;99.90;;;10.41;55.50;97078.63;5021165;28;20033;-54
2022/11/20 08:14:14;;;;;;;2.17;1.60;;;7.30;99.90;;;10.33;55.14;97075.16;5020751;28;20046;-53
2022/11/20 08:16:45;;;;;;;2.00;1.20;;;7.30;99.90;;;10.33;55.28;97083.16;5020739;28;20046;-55
2022/11/20 08:19:18;;;;;;;5.43;2.67;;;7.30;99.90;;;10.30;55.62;97092.31;5019632;28;20230;-56
2022/11/20 08:21:46;;;;;;;2.33;1.50;;;7.30;99.90;;;10.31;55.31;97093.97;5019506;28;20054;-56
2022/11/20 08:24:15;;;;;;;3.20;2.03;;;7.30;99.90;;;10.21;55.29;97090.66;5020694;28;20152;-54
2022/11/20 08:26:43;;;;;;;3.53;1.63;;;7.20;99.90;;;10.31;55.01;97090.47;5019985;28;20057;-54
2022/11/20 08:29:11;;;;;;;2.13;1.53;;;7.30;99.90;;;10.42;54.90;97088.25;5020486;28;20045;-52
2022/11/20 08:31:39;;;;;;;1.53;0.97;;;7.40;99.90;;;10.47;54.60;97085.09;5020609;28;20251;-52
2022/11/20 08:34:07;;;;;;;1.90;1.20;;;7.40;99.90;;;10.42;54.95;97090.91;5021689;28;20053;-55
2022/11/20 08:36:36;;;;;;;4.03;1.50;;;7.40;99.90;;;10.45;54.79;97087.09;5024398;28;20037;-56
2022/11/20 08:39:05;;;;;;;2.70;1.90;;;7.40;99.90;;;10.46;54.91;97086.09;5023149;28;20046;-54
2022/11/20 08:41:33;;;;;;;2.37;2.17;;;7.40;99.70;;;10.50;54.66;97098.03;5024519;28;20056;-56
2022/11/20 08:44:04;;;;;;;2.83;2.53;;;7.40;99.90;;;10.52;54.67;97098.69;5023762;28;20064;-55
2022/11/20 08:46:39;;;;;;;0.87;0.80;;;7.40;99.90;;;10.57;54.71;97104.31;5024036;28;20116;-53
2022/11/20 08:49:10;;;;;;;0.80;0.77;;;7.40;99.90;;;10.59;54.58;97104.97;5023194;28;20355;-56
2022/11/20 08:51:40;;;;;;;3.90;2.03;;;7.40;99.90;;;10.49;54.96;97112.38;5023229;28;20371;-56
2022/11/20 08:54:08;;;;;;;2.00;1.20;;;7.40;99.90;;;10.59;54.70;97110.31;5006401;28;20348;-55
2022/11/20 08:56:36;;;;;;;8.23;3.73;;;7.50;99.90;;;10.59;54.78;97106.81;5022801;28;20049;-54
2022/11/20 08:59:05;;;;;;;6.27;3.40;;;7.50;99.90;;;10.48;54.76;97120.50;5006499;28;20256;-56
2022/11/20 09:01:53;;;;;;;3.93;2.30;;;7.40;99.90;;;10.46;55.09;97112.69;5023617;28;20046;-55
2022/11/20 09:04:21;;;;;;;2.33;1.70;;;7.40;99.90;;;10.52;55.15;97109.34;5023597;28;20362;-56
2022/11/20 09:06:50;;;;;;;1.10;0.97;;;7.40;99.90;;;10.53;55.37;97116.31;5023701;28;20244;-55
2022/11/20 09:09:19;;;;;;;1.60;1.07;;;7.50;99.90;;;10.60;55.21;97117.31;5024249;28;20255;-54
2022/11/20 09:11:49;;;;;;;2.63;1.90;;;7.60;99.90;;;10.50;55.28;97119.31;5023368;28;20034;-56
2022/11/20 09:14:17;;;;;;;1.20;0.80;;;7.50;99.90;;;10.56;55.48;97121.28;5023430;28;20041;-54
2022/11/20 09:16:46;;;;;;;2.00;1.37;;;7.50;99.90;;;10.53;55.77;97126.16;5023018;28;20050;-52
2022/11/20 09:19:14;;;;;;;1.70;1.20;;;7.50;99.90;;;10.54;55.40;97136.59;5024558;28;20347;-56
2022/11/20 09:22:03;;;;;;;1.63;1.30;;;7.50;99.90;;;10.54;55.48;97133.94;5023941;28;20042;-56
2022/11/20 09:24:31;;;;;;;1.50;1.10;;;7.50;99.90;;;10.52;55.36;97138.59;5022723;28;20041;-55
2022/11/20 09:27:03;;;;;;;2.40;1.47;;;7.50;99.90;;;10.56;55.63;97141.75;5024560;28;20046;-55
2022/11/20 09:29:31;;;;;;;2.80;1.87;;;7.40;99.90;;;10.54;55.57;97144.59;5022967;28;20046;-52
2022/11/20 09:31:59;;;;;;;3.33;1.60;;;7.50;99.90;;;10.59;55.73;97138.75;5023098;28;20359;-55
2022/11/20 09:34:27;;;;;;;2.17;1.67;;;7.50;99.90;;;10.67;55.57;97141.38;5023318;28;20292;-56
2022/11/20 09:36:56;;;;;;;1.67;1.40;;;7.50;99.90;;;10.73;55.06;97138.00;5024351;28;20046;-57
2022/11/20 09:39:26;;;;;;;2.13;1.50;;;7.60;99.90;;;10.47;55.82;97138.31;5023949;28;20046;-61
2022/11/20 09:42:29;;;;;;;2.07;1.43;;;7.50;99.90;;;10.62;55.76;97144.56;5024121;28;20045;-61
2022/11/20 09:46:01;;;;;;;3.50;1.50;;;7.50;99.90;;;10.42;56.13;97151.31;5023006;28;20041;-61
2022/11/20 09:48:55;;;;;;;2.83;1.70;;;7.50;99.90;;;10.57;55.84;97144.25;5022001;28;20406;-61
2022/11/20 09:51:53;;;;;;;4.78;2.47;;;7.40;99.90;;;10.54;56.27;97163.22;5017749;28;20045;-61
2022/11/20 09:54:27;;;;;;;3.20;2.00;;;7.50;99.90;;;10.67;56.18;97146.69;5024004;28;20054;-61
2022/11/20 09:57:13;;;;;;;3.93;2.67;;;7.50;99.90;;;10.52;56.70;97149.25;5022590;28;20056;-61
2022/11/20 09:59:46;;;;;;;6.70;2.67;;;7.50;99.90;;;10.31;57.68;97152.50;5022889;28;20046;-61
2022/11/20 10:02:24;;;;;;;4.15;2.30;;;7.50;99.90;;;10.29;57.49;97148.31;5022774;28;20049;-61
2022/11/20 10:05:19;;;;;;;5.10;1.73;;;7.40;99.90;;;10.03;58.32;97165.34;5022828;28;20056;-61
2022/11/20 10:08:11;;;;;;;3.30;1.90;;;7.30;99.90;;;10.05;58.32;97166.00;5021937;28;20060;-61
2022/11/20 10:10:52;;;;;;;3.33;1.73;;;7.30;99.90;;;9.96;59.00;97157.19;5009508;28;20041;-61
2022/11/20 10:14:04;;;;;;;1.80;1.60;;;7.20;99.90;;;10.22;57.89;97153.50;5023484;28;20112;-61
2022/11/20 10:16:52;;;;;;;2.63;1.53;;;7.30;99.90;;;10.26;57.65;97162.81;5024171;28;20056;-61
2022/11/20 10:20:05;;;;;;;1.60;1.20;;;7.30;99.90;;;10.21;57.64;97144.69;5015783;28;20052;-61
2022/11/20 10:23:04;;;;;;;1.90;1.20;;;7.30;99.90;;;10.25;57.61;97147.81;5015234;28;20251;-61
2022/11/20 10:26:15;;;;;;;1.63;1.23;;;7.30;99.90;;;10.31;57.82;97141.84;5015654;28;20061;-63
2022/11/20 10:28:58;;;;;;;2.30;1.20;;;7.30;99.90;;;10.13;57.47;97141.22;5017958;28;20349;-62
2022/11/20 10:31:47;;;;;;;1.83;1.40;;;7.20;99.90;;;10.30;57.29;97156.16;5014914;28;20054;-60
2022/11/20 10:34:26;;;;;;;1.57;1.20;;;7.30;99.90;;;9.91;58.02;97159.56;5014646;28;20144;-60
2022/11/20 10:37:12;;;;;;;1.43;1.33;;;7.00;99.90;;;9.82;58.12;97152.59;5017638;28;20065;-61
2022/11/20 10:40:08;;;;;;;2.50;1.90;;;6.90;99.90;;;9.82;58.29;97156.06;5015322;28;20052;-61
2022/11/20 10:42:47;;;;;;;2.20;1.50;;;7.00;99.90;;;9.29;60.26;97151.28;5018225;28;20367;-61
2022/11/20 10:45:23;;;;;;;2.67;2.13;;;6.80;99.90;;;9.58;59.87;97150.78;5014221;28;20065;-61
2022/11/20 10:48:27;;;;;;;3.37;2.37;;;6.90;99.90;;;9.72;59.78;97157.25;5030717;28;20065;-60
2022/11/20 10:51:23;;;;;;;4.23;2.67;;;7.00;99.90;;;9.93;59.06;97154.91;5016257;28;20056;-60
2022/11/20 10:54:00;;;;;;;2.83;2.27;;;7.10;99.90;;;10.14;58.96;97142.88;5017130;28;20054;-60
2022/11/20 10:56:41;;;;;;;6.50;3.43;;;7.20;99.90;;;10.07;59.42;97148.06;4999500;28;20259;-60